^^
Station Historical Data
 
Daily Summary for June 28, 2017 Units:  English    Metric   Both
« Previous Day
Next Day »
Daily Weekly Monthly Yearly Custom
  Current: High: Low: Average:
Temperature: 69.7 °F 78.7 °F 57.9 °F 68.5 °F
Dew Point: 53.8 °F 56.3 °F 50.4 °F 52.7 °F
Humidity: 57% 83% 38% 59%
Wind Speed: 1.0mph 8.0mph 0.0mph 1.1mph
Wind Gust: 5.0mph 14.0mph - -
WindSouth - - SW
Pressure: 30.12 in 30.13 in 30.02 in -
Precipitation: 0.00 in      
Historical Graphs
 
 
Tabular Data for June 28, 2017
Time Temperature Dew Point Pressure Wind Wind Speed Wind Gust Humidity Rainfall Rate (Hourly) Conditions
00:00 60.3 °F 52.3 °F 30.02 in Calm   1.0 mph 75% 0.00 in RA
00:15 59.3 °F 53.1 °F 30.02 in Calm     80% 0.00 in CLR
00:30 58.5 °F 53.1 °F 30.02 in Calm     82% 0.00 in CLR
00:45 58.1 °F 52.9 °F 30.03 in Calm     83% 0.00 in CLR
01:00 57.9 °F 52.8 °F 30.03 in Calm     83% 0.00 in CLR
02:00 60.8 °F 51.7 °F 30.03 in Calm   3.0 mph 72% 0.00 in CLR
02:15 60.7 °F 51.6 °F 30.04 in Calm   2.0 mph 72% 0.00 in CLR
02:30 60.2 °F 51.5 °F 30.04 in Calm   1.0 mph 73% 0.00 in CLR
02:45 59.9 °F 51.2 °F 30.04 in Calm   3.0 mph 73% 0.00 in CLR
03:00 59.9 °F 51.6 °F 30.05 in Calm   2.0 mph 74% 0.00 in CLR
03:15 59.6 °F 51.3 °F 30.05 in Calm   3.0 mph 74% 0.00 in CLR
03:45 59.6 °F 51.3 °F 30.05 in Calm   4.0 mph 74% 0.00 in CLR
04:00 59.5 °F 51.2 °F 30.06 in Calm   3.0 mph 74% 0.00 in CLR
04:15 59.5 °F 51.2 °F 30.06 in ESE 1.0 mph 8.0 mph 74% 0.00 in CLR
04:30 59.4 °F 51.5 °F 30.06 in Calm   3.0 mph 75% 0.00 in CLR
04:45 59.3 °F 51.7 °F 30.07 in Calm   4.0 mph 76% 0.00 in CLR
05:00 59.1 °F 51.5 °F 30.08 in Calm   1.0 mph 76% 0.00 in CLR
05:15 58.7 °F 51.5 °F 30.07 in Calm   3.0 mph 77% 0.00 in CLR
05:30 58.8 °F 51.6 °F 30.08 in Calm   6.0 mph 77% 0.00 in CLR
05:45 58.8 °F 51.6 °F 30.08 in Calm   3.0 mph 77% 0.00 in CLR
06:00 58.7 °F 51.5 °F 30.08 in Calm   7.0 mph 77% 0.00 in CLR
06:15 58.7 °F 51.9 °F 30.09 in Calm   4.0 mph 78% 0.00 in CLR
06:30 58.9 °F 52.1 °F 30.09 in Calm   6.0 mph 78% 0.00 in CLR
06:45 59.1 °F 52.2 °F 30.09 in Calm   5.0 mph 78% 0.00 in CLR
07:00 59.4 °F 52.5 °F 30.09 in Calm   3.0 mph 78% 0.00 in CLR
07:15 59.6 °F 52.4 °F 30.10 in Calm   4.0 mph 77% 0.00 in CLR
07:30 59.9 °F 53.0 °F 30.11 in Calm   4.0 mph 78% 0.00 in CLR
07:45 61.2 °F 53.3 °F 30.11 in Calm   4.0 mph 75% 0.00 in CLR
08:00 62.6 °F 53.5 °F 30.11 in NNW 1.0 mph 5.0 mph 72% 0.00 in CLR
08:15 63.3 °F 53.8 °F 30.12 in NNW 1.0 mph 5.0 mph 71% 0.00 in CLR
08:30 64.6 °F 54.5 °F 30.12 in Calm   7.0 mph 70% 0.00 in CLR
08:45 65.4 °F 54.9 °F 30.12 in Calm   3.0 mph 69% 0.00 in CLR
09:00 66.1 °F 54.8 °F 30.12 in NNW 1.0 mph 4.0 mph 67% 0.00 in CLR
09:15 66.8 °F 55.0 °F 30.12 in Calm   4.0 mph 66% 0.00 in CLR
09:30 67.4 °F 53.9 °F 30.12 in WSW 3.0 mph 6.0 mph 62% 0.00 in CLR
09:45 67.6 °F 52.7 °F 30.12 in NW 1.0 mph 6.0 mph 59% 0.00 in CLR
10:00 68.7 °F 53.3 °F 30.12 in Calm   5.0 mph 58% 0.00 in CLR
10:15 69.4 °F 53.5 °F 30.11 in Calm   5.0 mph 57% 0.00 in CLR
10:30 69.5 °F 53.1 °F 30.12 in SW 2.0 mph 7.0 mph 56% 0.00 in CLR
10:45 71.1 °F 53.1 °F 30.12 in SSW 2.0 mph 7.0 mph 53% 0.00 in CLR
11:00 70.8 °F 51.8 °F 30.12 in SW 2.0 mph 7.0 mph 51% 0.00 in CLR
11:15 71.2 °F 52.2 °F 30.12 in Calm   7.0 mph 51% 0.00 in CLR
11:30 71.5 °F 50.8 °F 30.12 in West 1.0 mph 5.0 mph 48% 0.00 in CLR
11:45 71.8 °F 50.4 °F 30.12 in NNW 1.0 mph 7.0 mph 47% 0.00 in CLR
12:00 72.6 °F 51.2 °F 30.12 in NNE 2.0 mph 8.0 mph 47% 0.00 in CLR
12:15 72.4 °F 50.4 °F 30.12 in East 2.0 mph 10.0 mph 46% 0.00 in SCT
12:30 73.6 °F 53.3 °F 30.12 in SSW 3.0 mph 9.0 mph 49% 0.00 in SCT
12:45 73.3 °F 52.4 °F 30.12 in SSW 1.0 mph 10.0 mph 48% 0.00 in SCT
13:00 73.7 °F 52.8 °F 30.12 in SW 3.0 mph 9.0 mph 48% 0.00 in SCT
13:15 73.6 °F 53.3 °F 30.12 in WSW 6.0 mph 10.0 mph 49% 0.00 in BKN
13:30 73.7 °F 52.2 °F 30.13 in SW 5.0 mph 9.0 mph 47% 0.00 in BKN
13:45 73.9 °F 53.0 °F 30.12 in South 8.0 mph 13.0 mph 48% 0.00 in BKN
14:00 73.6 °F 52.2 °F 30.12 in South 5.0 mph 14.0 mph 47% 0.00 in BKN
14:15 75.1 °F 54.1 °F 30.12 in SW 5.0 mph 9.0 mph 48% 0.00 in BKN
14:30 75.4 °F 52.0 °F 30.10 in WSW 2.0 mph 12.0 mph 44% 0.00 in BKN
14:45 76.6 °F 51.1 °F 30.10 in SW 3.0 mph 9.0 mph 41% 0.00 in BKN
15:00 76.4 °F 51.6 °F 30.10 in NE 3.0 mph 12.0 mph 42% 0.00 in BKN
15:15 76.5 °F 51.0 °F 30.09 in WNW 2.0 mph 12.0 mph 41% 0.00 in SCT
15:30 77.1 °F 51.6 °F 30.09 in NW 3.0 mph 8.0 mph 41% 0.00 in SCT
15:45 77.0 °F 51.5 °F 30.09 in NW 5.0 mph 12.0 mph 41% 0.00 in SCT
16:00 77.6 °F 52.7 °F 30.09 in WNW 2.0 mph 10.0 mph 42% 0.00 in SCT
16:15 77.4 °F 50.5 °F 30.09 in NNE 1.0 mph 10.0 mph 39% 0.00 in SCT
16:30 77.4 °F 51.9 °F 30.08 in West 2.0 mph 6.0 mph 41% 0.00 in SCT
16:45 78.6 °F 51.6 °F 30.08 in South 2.0 mph 6.0 mph 39% 0.00 in SCT
17:00 78.5 °F 50.8 °F 30.08 in West 1.0 mph 7.0 mph 38% 0.00 in SCT
17:15 77.9 °F 53.0 °F 30.09 in Calm   6.0 mph 42% 0.00 in SCT
17:30 78.1 °F 50.4 °F 30.08 in SE 3.0 mph 7.0 mph 38% 0.00 in SCT
17:45 77.6 °F 51.4 °F 30.08 in SSW 2.0 mph 6.0 mph 40% 0.00 in SCT
18:00 78.7 °F 51.6 °F 30.08 in SSW 1.0 mph 8.0 mph 39% 0.00 in SCT
18:15 77.5 °F 51.3 °F 30.08 in SW 1.0 mph 7.0 mph 40% 0.00 in SCT
18:30 78.1 °F 52.5 °F 30.08 in WSW 1.0 mph 7.0 mph 41% 0.00 in SCT
18:45 77.8 °F 52.2 °F 30.08 in SW 1.0 mph 12.0 mph 41% 0.00 in SCT
19:00 77.1 °F 50.9 °F 30.09 in SSW 2.0 mph 8.0 mph 40% 0.00 in SCT
19:15 77.6 °F 52.7 °F 30.08 in Calm   4.0 mph 42% 0.00 in FEW
19:30 77.4 °F 53.1 °F 30.09 in Calm   5.0 mph 43% 0.00 in FEW
19:45 76.4 °F 52.9 °F 30.09 in Calm   4.0 mph 44% 0.00 in FEW
20:00 75.3 °F 53.7 °F 30.09 in Calm   4.0 mph 47% 0.00 in FEW
20:15 73.5 °F 54.2 °F 30.09 in Calm     51% 0.00 in FEW
20:30 71.4 °F 55.4 °F 30.09 in Calm     57% 0.00 in FEW
20:45 69.5 °F 55.9 °F 30.09 in Calm     62% 0.00 in FEW
21:00 69.2 °F 54.3 °F 30.10 in Calm   1.0 mph 59% 0.00 in FEW
21:15 69.5 °F 55.0 °F 30.10 in Calm     60% 0.00 in CLR
21:30 68.6 °F 55.1 °F 30.10 in Calm     62% 0.00 in CLR
21:45 67.3 °F 56.3 °F 30.10 in Calm     68% 0.00 in CLR
22:00 67.2 °F 55.9 °F 30.10 in Calm   1.0 mph 67% 0.00 in CLR
22:15 67.9 °F 54.4 °F 30.11 in South 1.0 mph 3.0 mph 62% 0.00 in CLR
22:30 69.0 °F 54.1 °F 30.11 in Calm   6.0 mph 59% 0.00 in CLR
22:45 69.4 °F 54.0 °F 30.12 in South 1.0 mph 5.0 mph 58% 0.00 in CLR
23:00 69.7 °F 54.3 °F 30.12 in SSW 1.0 mph 6.0 mph 58% 0.00 in CLR
23:15 69.9 °F 54.0 °F 30.12 in Calm   6.0 mph 57% 0.00 in CLR
23:30 69.8 °F 53.9 °F 30.12 in South 2.0 mph 6.0 mph 57% 0.00 in CLR
23:45 69.7 °F 53.8 °F 30.12 in South 1.0 mph 5.0 mph 57% 0.00 in CLR
TarryTown NY Weather
Compliments of Weather Underground - 1.5 mb